Time;durP1;ratioP1;P1;durP2;ratioP2;P2;SDS_P1;SDS_P2;PMS_P1;PMS_P2;Temp;Humidity;BMP_temperature;BMP_pressure;BME280_temperature;BME280_humidity;BME280_pressure;Samples;Min_cycle;Max_cycle;Signal;HPM_P1;HPM_P2
2023/09/03 00:00:40;;;;;;;2.88;2.22;;;;;;;18.11;86.66;96292.81;4980034;28;20270;-84
2023/09/03 00:03:05;;;;;;;2.22;2.00;;;;;;;18.10;86.64;96289.34;4980611;28;20183;-86
2023/09/03 00:05:31;;;;;;;2.80;2.45;;;;;;;18.10;87.13;96294.59;4982317;28;20192;-84
2023/09/03 00:07:58;;;;;;;2.60;2.40;;;;;;;18.07;86.99;96286.25;4979361;28;20645;-84
2023/09/03 00:10:24;;;;;;;2.75;2.10;;;;;;;18.06;87.37;96284.63;4988725;28;20290;-84
2023/09/03 00:12:50;;;;;;;2.83;2.63;;;;;;;18.06;87.35;96280.19;4992360;28;20279;-84
2023/09/03 00:15:15;;;;;;;2.75;2.47;;;;;;;18.06;86.93;96285.44;4983203;28;20215;-84
2023/09/03 00:17:43;;;;;;;3.10;2.60;;;;;;;18.06;87.32;96284.63;4976322;28;20172;-84
2023/09/03 00:20:08;;;;;;;3.00;2.72;;;;;;;18.05;87.29;96280.38;4981551;28;20200;-84
2023/09/03 00:22:34;;;;;;;3.55;2.88;;;;;;;18.03;87.15;96275.28;4979604;28;20641;-84
2023/09/03 00:24:59;;;;;;;3.47;2.90;;;;;;;18.03;87.86;96285.00;4977999;28;20172;-83
2023/09/03 00:27:24;;;;;;;3.10;2.83;;;;;;;18.01;88.34;96277.25;4983927;28;20243;-83
2023/09/03 00:29:49;;;;;;;6.55;3.38;;;;;;;18.00;89.03;96280.06;4981299;28;20204;-84
2023/09/03 00:32:15;;;;;;;3.35;3.05;;;;;;;17.99;88.97;96283.69;4978448;28;20211;-85
2023/09/03 00:34:40;;;;;;;3.17;2.80;;;;;;;17.97;89.25;96285.69;4978616;28;20182;-84
2023/09/03 00:37:05;;;;;;;3.92;2.78;;;;;;;18.02;88.69;96283.31;4973867;28;20220;-83
2023/09/03 00:39:31;;;;;;;2.97;2.70;;;;;;;17.97;88.58;96296.19;5009059;28;20346;-84
2023/09/03 00:41:56;;;;;;;7.03;3.00;;;;;;;17.96;89.43;96294.56;4991737;28;20274;-84
2023/09/03 00:44:21;;;;;;;3.58;2.63;;;;;;;17.93;89.34;96292.25;4977358;28;20576;-83
2023/09/03 00:46:47;;;;;;;3.80;2.85;;;;;;;17.91;89.08;96297.69;4993419;28;20172;-83
2023/09/03 00:49:17;;;;;;;3.60;3.17;;;;;;;17.89;88.85;96296.25;4977401;28;20715;-84
2023/09/03 00:51:42;;;;;;;2.88;2.50;;;;;;;17.88;89.45;96297.25;4962275;28;20180;-84
2023/09/03 00:54:08;;;;;;;4.25;2.58;;;;;;;17.85;89.70;96300.22;4993551;28;20183;-83
2023/09/03 00:56:33;;;;;;;4.47;2.47;;;;;;;17.83;89.86;96288.06;4969886;28;20200;-83
2023/09/03 00:59:02;;;;;;;5.20;2.50;;;;;;;17.86;89.81;96293.97;4977692;28;20693;-84
2023/09/03 01:01:27;;;;;;;3.10;2.22;;;;;;;17.79;90.15;96294.66;4977590;28;20529;-83
2023/09/03 01:03:53;;;;;;;2.45;2.25;;;;;;;17.82;90.22;96291.69;4977872;28;20234;-84
2023/09/03 01:06:19;;;;;;;3.15;2.42;;;;;;;17.91;90.71;96291.63;4965406;28;20661;-83
2023/09/03 01:08:45;;;;;;;3.90;2.63;;;;;;;17.94;90.63;96286.03;4967702;28;20200;-84
2023/09/03 01:11:49;;;;;;;2.85;2.38;;;;;;;17.97;90.50;96291.75;4991474;28;20576;-83
2023/09/03 01:14:44;;;;;;;4.75;2.40;;;;;;;17.97;90.27;96290.94;4975170;28;20192;-83
2023/09/03 01:17:21;;;;;;;2.88;2.22;;;;;;;17.96;90.76;96289.31;4974239;28;20647;-83
2023/09/03 01:20:05;;;;;;;3.08;2.65;;;;;;;17.91;90.49;96296.88;4990410;28;20317;-83
2023/09/03 01:22:59;;;;;;;2.88;2.60;;;;;;;17.94;90.71;96292.13;4975837;28;20234;-84
2023/09/03 01:26:04;;;;;;;2.95;2.30;;;;;;;17.90;90.12;96297.88;4974005;28;20172;-83
2023/09/03 01:28:31;;;;;;;2.83;2.25;;;;;;;17.89;89.98;96296.25;4992128;28;20269;-83
2023/09/03 01:30:59;;;;;;;3.03;2.10;;;;;;;17.85;90.02;96308.09;4960261;28;20562;-85
2023/09/03 01:33:26;;;;;;;3.97;2.88;;;;;;;17.80;90.35;96311.25;4973854;28;20207;-83
2023/09/03 01:35:53;;;;;;;4.10;2.50;;;;;;;17.78;90.18;96315.84;4973060;28;20212;-84
2023/09/03 01:38:19;;;;;;;2.53;2.28;;;;;;;17.78;90.42;96311.44;4973877;28;20181;-84
2023/09/03 01:40:47;;;;;;;2.95;2.63;;;;;;;17.77;90.45;96317.66;4964847;28;20253;-83
2023/09/03 01:43:12;;;;;;;3.92;2.47;;;;;;;17.75;91.01;96322.25;4966795;28;20249;-85
2023/09/03 01:46:12;;;;;;;2.42;2.15;;;;;;;17.76;90.57;96326.53;4974336;28;20176;-84
2023/09/03 01:49:14;;;;;;;3.15;2.13;;;;;;;17.78;90.99;96329.81;4981847;28;20242;-83
2023/09/03 01:52:02;;;;;;;4.30;2.40;;;;;;;17.84;90.55;96333.53;4987227;28;20179;-83
2023/09/03 01:54:30;;;;;;;3.33;2.80;;;;;;;17.86;90.99;96333.38;4983163;28;20631;-83
2023/09/03 01:57:05;;;;;;;3.28;2.30;;;;;;;17.91;90.72;96338.91;4975574;28;20604;-85
2023/09/03 01:59:45;;;;;;;5.05;3.00;;;;;;;17.93;91.20;96331.69;4957849;28;20223;-82
2023/09/03 02:02:12;;;;;;;2.65;2.45;;;;;;;17.88;90.91;96328.78;4986850;28;20596;-83
2023/09/03 02:04:37;;;;;;;3.65;2.40;;;;;;;17.91;91.32;96329.22;4990907;28;20258;-82
2023/09/03 02:07:02;;;;;;;2.83;2.40;;;;;;;17.93;90.61;96336.94;4975386;28;20215;-84
2023/09/03 02:09:28;;;;;;;3.88;2.63;;;;;;;17.89;91.09;96335.66;5008341;28;20578;-85
2023/09/03 02:11:53;;;;;;;5.45;2.40;;;;;;;17.90;90.60;96338.09;4971355;28;20191;-86
2023/09/03 02:14:18;;;;;;;2.28;2.08;;;;;;;17.91;90.90;96341.56;4976260;28;20191;-84
2023/09/03 02:16:44;;;;;;;3.03;2.40;;;;;;;17.89;90.20;96346.97;4958914;28;20205;-83
2023/09/03 02:19:09;;;;;;;4.10;2.15;;;;;;;17.89;90.31;96346.16;4969536;28;20215;-83
2023/09/03 02:21:34;;;;;;;2.40;2.20;;;;;;;17.87;89.97;96342.91;4970995;28;20196;-83
2023/09/03 02:24:00;;;;;;;2.55;2.35;;;;;;;17.86;89.81;96352.59;4963380;28;20606;-84
2023/09/03 02:26:25;;;;;;;3.63;2.17;;;;;;;17.82;90.05;96341.59;4975891;28;20207;-83
2023/09/03 02:28:50;;;;;;;3.55;2.33;;;;;;;17.83;90.08;96345.03;4972769;28;20208;-83
2023/09/03 02:31:16;;;;;;;2.20;1.90;;;;;;;17.85;90.07;96350.16;4976911;28;20680;-85
2023/09/03 02:33:41;;;;;;;2.20;2.00;;;;;;;17.84;89.88;96344.03;4963311;28;20203;-84
2023/09/03 02:36:06;;;;;;;3.65;2.10;;;;;;;17.83;89.85;96340.59;4975351;28;20211;-84
2023/09/03 02:38:31;;;;;;;2.28;2.08;;;;;;;17.85;89.86;96344.88;4975358;28;20248;-84
2023/09/03 02:40:57;;;;;;;2.38;2.08;;;;;;;17.82;89.87;96346.84;4987745;28;20187;-84
2023/09/03 02:43:22;;;;;;;2.45;2.25;;;;;;;17.76;89.67;96349.38;4985085;28;20228;-84
2023/09/03 02:45:48;;;;;;;2.35;2.13;;;;;;;17.71;89.46;96349.06;4961324;28;20553;-84
2023/09/03 02:48:13;;;;;;;2.70;2.00;;;;;;;17.67;89.50;96351.19;4978467;28;20184;-84
2023/09/03 02:50:38;;;;;;;2.50;2.30;;;;;;;17.60;89.30;96346.78;4991139;28;20180;-85
2023/09/03 02:53:05;;;;;;;3.45;2.22;;;;;;;17.60;89.77;96347.59;4980894;28;20180;-82
2023/09/03 02:55:30;;;;;;;2.90;2.30;;;;;;;17.60;89.82;96347.59;4974327;28;20283;-83
2023/09/03 02:57:56;;;;;;;2.47;1.90;;;;;;;17.62;89.76;96352.69;4972464;28;20194;-83
2023/09/03 03:00:23;;;;;;;2.30;1.88;;;;;;;17.60;90.12;96357.31;4982704;28;20212;-83
2023/09/03 03:02:48;;;;;;;2.25;1.90;;;;;;;17.59;89.74;96360.91;4989623;28;20200;-84
2023/09/03 03:05:13;;;;;;;2.67;2.40;;;;;;;17.57;89.42;96358.44;4976002;28;20188;-82
2023/09/03 03:07:43;;;;;;;2.65;2.17;;;;;;;17.53;88.84;96359.78;4983400;28;20189;-82
2023/09/03 03:10:09;;;;;;;2.78;2.58;;;;;;;17.47;89.27;96355.22;4984611;28;20207;-83
2023/09/03 03:12:35;;;;;;;2.50;2.30;;;;;;;17.48;89.29;96351.59;4999136;28;20188;-83
2023/09/03 03:15:00;;;;;;;3.95;2.10;;;;;;;17.47;89.59;96350.78;4975732;28;20188;-82
2023/09/03 03:17:25;;;;;;;2.83;2.15;;;;;;;17.46;89.44;96345.69;4975756;28;20761;-83
2023/09/03 03:19:51;;;;;;;2.33;2.13;;;;;;;17.47;89.80;96358.66;4978470;28;20216;-82
2023/09/03 03:22:16;;;;;;;4.28;2.30;;;;;;;17.48;90.40;96354.22;4970241;28;20687;-83
2023/09/03 03:24:41;;;;;;;3.05;2.40;;;;;;;17.48;90.55;96355.03;4963342;28;20184;-82
2023/09/03 03:27:07;;;;;;;3.00;2.00;;;;;;;17.51;90.24;96361.78;4983122;28;20222;-82
2023/09/03 03:29:33;;;;;;;4.53;2.10;;;;;;;17.47;90.28;96360.47;4990814;28;20231;-83
2023/09/03 03:32:01;;;;;;;4.72;2.05;;;;;;;17.47;90.22;96357.81;4984824;28;20180;-82
2023/09/03 03:34:26;;;;;;;3.55;2.38;;;;;;;17.48;90.39;96354.22;4962076;28;20188;-83
2023/09/03 03:36:53;;;;;;;2.85;2.00;;;;;;;17.48;90.51;96365.53;4977046;28;20221;-82
2023/09/03 03:39:19;;;;;;;2.67;2.42;;;;;;;17.48;90.39;96367.34;4979247;28;20212;-82
2023/09/03 03:41:45;;;;;;;2.22;2.10;;;;;;;17.48;90.48;96372.59;4986680;28;20231;-82
2023/09/03 03:44:10;;;;;;;2.17;1.98;;;;;;;17.49;90.35;96374.22;4974691;28;20184;-82
2023/09/03 03:46:36;;;;;;;2.88;2.30;;;;;;;17.47;90.22;96381.47;4970473;28;20713;-82
2023/09/03 03:49:01;;;;;;;2.22;2.03;;;;;;;17.46;90.22;96377.19;4966375;28;20215;-82
2023/09/03 03:51:27;;;;;;;2.33;2.05;;;;;;;17.52;90.25;96376.53;4991182;28;20184;-84
2023/09/03 03:53:52;;;;;;;3.78;2.45;;;;;;;17.50;90.63;96383.78;4967219;28;20201;-82
2023/09/03 03:56:17;;;;;;;3.17;2.50;;;;;;;17.52;90.25;96381.78;4989346;28;20209;-85
2023/09/03 03:58:43;;;;;;;2.20;2.00;;;;;;;17.53;90.29;96386.03;4986142;28;20219;-82
2023/09/03 04:01:16;;;;;;;2.90;2.35;;;;;;;17.46;91.30;96388.53;4986491;28;20191;-82
2023/09/03 04:03:42;;;;;;;1.80;1.70;;;;;;;17.50;90.49;96381.97;4977277;28;20187;-84
2023/09/03 04:06:08;;;;;;;3.65;1.90;;;;;;;17.50;90.37;96376.72;4967615;28;20188;-84
2023/09/03 04:08:35;;;;;;;3.20;2.10;;;;;;;17.49;90.67;96380.31;4982939;28;20215;-85
2023/09/03 04:11:02;;;;;;;2.28;2.08;;;;;;;17.41;91.22;96377.72;4977802;28;20312;-84
2023/09/03 04:13:28;;;;;;;2.90;2.38;;;;;;;17.45;90.94;96380.81;4975117;28;20278;-84
2023/09/03 04:15:54;;;;;;;2.45;2.10;;;;;;;17.44;91.59;96387.06;4985286;28;20209;-84
2023/09/03 04:18:20;;;;;;;3.05;2.42;;;;;;;17.39;91.86;96390.19;4967402;28;20199;-83
2023/09/03 04:20:45;;;;;;;3.13;2.15;;;;;;;17.37;92.25;96388.72;4977841;28;20650;-85
2023/09/03 04:23:11;;;;;;;4.03;2.50;;;;;;;17.40;92.05;96393.63;4983736;28;20196;-84
2023/09/03 04:25:37;;;;;;;2.28;2.08;;;;;;;17.46;91.03;96391.16;4982911;28;20188;-83
2023/09/03 04:28:02;;;;;;;2.40;2.20;;;;;;;17.37;91.51;96394.78;4967568;28;20585;-83
2023/09/03 04:30:27;;;;;;;2.97;2.47;;;;;;;17.36;91.97;96400.22;4979012;28;20204;-84
2023/09/03 04:32:53;;;;;;;2.47;1.92;;;;;;;17.43;91.37;96396.75;4970843;28;20266;-83
2023/09/03 04:35:18;;;;;;;2.70;2.50;;;;;;;17.41;90.80;96403.16;4983909;28;20744;-85
2023/09/03 04:37:43;;;;;;;2.45;2.25;;;;;;;17.42;91.16;96407.44;4978489;28;20211;-83
2023/09/03 04:40:09;;;;;;;2.92;2.15;;;;;;;17.39;90.75;96407.75;4982049;28;20215;-83
2023/09/03 04:42:34;;;;;;;3.05;2.20;;;;;;;17.36;90.66;96408.91;4981689;28;20187;-83
2023/09/03 04:45:00;;;;;;;4.07;2.28;;;;;;;17.36;91.50;96408.91;4982070;28;20710;-83
2023/09/03 04:47:25;;;;;;;3.05;2.35;;;;;;;17.38;91.63;96416.63;4981218;28;20239;-83
2023/09/03 04:49:50;;;;;;;2.63;2.20;;;;;;;17.14;92.07;96422.72;4977279;28;20640;-86
2023/09/03 04:52:16;;;;;;;2.30;2.10;;;;;;;17.28;91.58;96409.75;4976603;28;20195;-83
2023/09/03 04:54:41;;;;;;;4.57;2.50;;;;;;;17.36;92.20;96419.41;4993850;28;20234;-83
2023/09/03 04:57:07;;;;;;;2.55;2.35;;;;;;;17.39;92.31;96426.13;4973513;28;20212;-83
2023/09/03 04:59:32;;;;;;;3.08;2.13;;;;;;;17.41;92.15;96421.53;4962769;28;20295;-83
2023/09/03 05:01:58;;;;;;;3.00;2.30;;;;;;;17.47;91.52;96418.22;4974328;28;20270;-83
2023/09/03 05:04:23;;;;;;;2.92;2.25;;;;;;;17.47;91.05;96428.72;4978032;28;20176;-82
2023/09/03 05:06:49;;;;;;;3.45;2.90;;;;;;;17.48;91.26;96427.72;4974177;28;20188;-82
2023/09/03 05:09:14;;;;;;;3.38;2.20;;;;;;;17.52;91.09;96429.88;4988938;28;20268;-82
2023/09/03 05:11:42;;;;;;;3.55;2.45;;;;;;;17.58;91.31;96433.63;4977048;28;20196;-82
2023/09/03 05:14:07;;;;;;;4.53;2.40;;;;;;;17.67;91.19;96432.63;4988928;28;20281;-84
2023/09/03 05:16:32;;;;;;;2.05;1.83;;;;;;;17.69;90.96;96441.13;4986416;28;20690;-82
2023/09/03 05:19:04;;;;;;;4.75;2.35;;;;;;;17.79;90.73;96443.59;4995885;28;20192;-82
2023/09/03 05:21:29;;;;;;;3.20;2.33;;;;;;;17.78;90.52;96453.28;4972157;28;20184;-83
2023/09/03 05:23:55;;;;;;;2.85;2.55;;;;;;;17.79;89.74;96448.84;4993040;28;20220;-84
2023/09/03 05:26:20;;;;;;;4.68;2.30;;;;;;;17.89;89.83;96446.00;4989831;28;20188;-89
2023/09/03 05:28:45;;;;;;;3.85;2.53;;;;;;;17.94;89.59;96451.59;5002409;28;20242;-89
2023/09/03 05:31:11;;;;;;;3.78;2.20;;;;;;;18.03;89.03;96450.56;5002732;28;20178;-89
2023/09/03 05:33:36;;;;;;;3.75;2.17;;;;;;;18.17;88.71;96455.06;4998037;28;20180;-88
2023/09/03 05:36:01;;;;;;;2.85;2.30;;;;;;;18.22;88.16;96454.56;4996045;28;20294;-84
2023/09/03 05:38:27;;;;;;;4.45;2.53;;;;;;;18.32;87.71;96458.59;4987361;28;20569;-83
2023/09/03 05:40:52;;;;;;;2.88;2.30;;;;;;;18.47;87.51;96465.75;4978357;28;20188;-82
2023/09/03 05:43:17;;;;;;;3.08;2.22;;;;;;;18.58;86.74;96467.97;4982716;28;20195;-83
2023/09/03 05:45:44;;;;;;;3.42;3.00;;;;;;;18.74;86.97;96469.72;4975461;28;20180;-84
2023/09/03 05:48:09;;;;;;;3.67;3.28;;;;;;;18.90;86.13;96465.13;4989485;28;20230;-82
2023/09/03 05:50:35;;;;;;;4.18;2.70;;;;;;;18.98;85.37;96460.78;4976741;28;20620;-83
2023/09/03 05:53:00;;;;;;;3.17;2.63;;;;;;;19.15;85.47;96457.00;4991938;28;20192;-83
2023/09/03 05:55:25;;;;;;;2.58;2.20;;;;;;;19.29;84.96;96453.59;4978962;28;20316;-83
2023/09/03 05:57:54;;;;;;;3.40;2.28;;;;;;;19.57;84.02;96455.66;4973392;28;20189;-83
2023/09/03 06:00:19;;;;;;;2.80;2.60;;;;;;;19.53;83.40;96461.25;4992233;28;20291;-84
2023/09/03 06:02:44;;;;;;;2.70;2.45;;;;;;;19.60;83.29;96453.47;4974302;28;20299;-83
2023/09/03 06:05:10;;;;;;;4.55;2.63;;;;;;;19.79;82.54;96452.13;4978535;28;20202;-83
2023/09/03 06:07:35;;;;;;;2.92;2.25;;;;;;;19.84;82.63;96464.72;4978342;28;20191;-83
2023/09/03 06:10:01;;;;;;;2.90;2.67;;;;;;;19.83;82.87;96455.19;4981812;28;20605;-83
2023/09/03 06:12:26;;;;;;;3.55;2.20;;;;;;;19.86;82.85;96463.53;4987064;28;20664;-81
2023/09/03 06:14:51;;;;;;;2.35;2.15;;;;;;;19.93;82.36;96471.53;4981063;28;20192;-83
2023/09/03 06:17:17;;;;;;;2.67;2.30;;;;;;;19.99;82.25;96469.00;4958597;28;20212;-82
2023/09/03 06:19:42;;;;;;;2.75;2.30;;;;;;;20.01;82.12;96463.53;4974175;28;20240;-83
2023/09/03 06:22:08;;;;;;;3.25;2.33;;;;;;;20.02;81.94;96473.06;4975792;28;20678;-81
2023/09/03 06:24:33;;;;;;;3.38;2.25;;;;;;;20.03;81.79;96475.53;4972842;28;20628;-82
2023/09/03 06:26:58;;;;;;;3.45;2.28;;;;;;;20.00;82.14;96480.34;4979766;28;20690;-81
2023/09/03 06:29:25;;;;;;;3.55;2.20;;;;;;;20.14;81.37;96481.31;4966450;28;20745;-81
2023/09/03 06:31:50;;;;;;;3.05;2.28;;;;;;;20.38;81.02;96486.28;4985325;28;20275;-81
2023/09/03 06:34:16;;;;;;;2.80;2.00;;;;;;;20.51;80.20;96498.84;4970281;28;20219;-82
2023/09/03 06:36:41;;;;;;;2.55;2.10;;;;;;;20.74;79.14;96498.66;4977814;28;20212;-82
2023/09/03 06:39:07;;;;;;;2.70;2.08;;;;;;;20.90;78.71;96503.69;4988534;28;20248;-82
2023/09/03 06:41:32;;;;;;;3.15;1.90;;;;;;;20.98;78.65;96511.50;4974663;28;20624;-82
2023/09/03 06:43:57;;;;;;;1.90;1.80;;;;;;;21.09;77.83;96510.97;4976906;28;20686;-82
2023/09/03 06:46:23;;;;;;;2.10;1.90;;;;;;;21.20;77.55;96509.66;4979470;28;20181;-82
2023/09/03 06:48:48;;;;;;;2.47;2.00;;;;;;;21.30;76.58;96514.66;4982235;28;20239;-82
2023/09/03 06:51:13;;;;;;;2.20;2.00;;;;;;;21.40;76.34;96515.16;4968457;28;20207;-82
2023/09/03 06:53:39;;;;;;;1.98;1.88;;;;;;;21.48;76.21;96513.19;4986556;28;20263;-82
2023/09/03 06:56:04;;;;;;;3.03;2.42;;;;;;;21.63;75.06;96520.16;4989117;28;20211;-82
2023/09/03 06:58:29;;;;;;;2.28;2.10;;;;;;;21.73;74.21;96525.94;4988037;28;20194;-83
2023/09/03 07:00:55;;;;;;;3.15;2.05;;;;;;;21.85;73.66;96529.69;4975082;28;20195;-83
2023/09/03 07:03:20;;;;;;;2.40;1.65;;;;;;;22.01;73.54;96534.66;4991343;28;20198;-84
2023/09/03 07:05:46;;;;;;;2.05;1.85;;;;;;;22.08;72.38;96544.47;4980249;28;20188;-84
2023/09/03 07:08:13;;;;;;;2.53;2.08;;;;;;;22.29;72.09;96547.88;4967335;28;20646;-82
2023/09/03 07:10:38;;;;;;;2.25;1.73;;;;;;;22.30;70.73;96538.91;4976742;28;20198;-82
2023/09/03 07:13:04;;;;;;;2.30;1.77;;;;;;;22.39;69.83;96550.16;4989990;28;20183;-82
2023/09/03 07:15:29;;;;;;;2.15;2.05;;;;;;;22.39;67.52;96541.38;4984358;28;20246;-83
2023/09/03 07:17:54;;;;;;;5.22;1.92;;;;;;;22.46;65.98;96532.47;4975423;28;20219;-82
2023/09/03 07:20:20;;;;;;;2.22;2.03;;;;;;;22.55;66.39;96541.06;4977725;28;20218;-82
2023/09/03 07:22:45;;;;;;;3.50;1.95;;;;;;;22.73;65.53;96551.91;4985549;28;20183;-81
2023/09/03 07:25:10;;;;;;;2.00;1.80;;;;;;;22.52;64.61;96552.81;4984448;28;20184;-82
2023/09/03 07:27:38;;;;;;;2.20;2.00;;;;;;;22.27;65.12;96557.03;4982096;28;20550;-82
2023/09/03 07:30:08;;;;;;;2.03;1.60;;;;;;;22.28;64.48;96559.47;4988542;28;20199;-82
2023/09/03 07:32:33;;;;;;;2.03;1.85;;;;;;;22.46;63.42;96556.28;4977300;28;20205;-83
2023/09/03 07:34:59;;;;;;;2.10;1.52;;;;;;;22.50;64.35;96551.41;4988902;28;20192;-85
2023/09/03 07:37:24;;;;;;;4.15;2.00;;;;;;;22.72;64.23;96557.41;4987881;28;20219;-85
2023/09/03 07:39:49;;;;;;;2.20;1.70;;;;;;;22.55;63.45;96568.34;4977475;28;20215;-85
2023/09/03 07:42:15;;;;;;;1.70;1.60;;;;;;;22.49;62.86;96578.88;4996390;28;20246;-86
2023/09/03 07:44:40;;;;;;;2.50;1.70;;;;;;;22.82;62.07;96577.19;4991437;28;20230;-84
2023/09/03 07:47:05;;;;;;;1.75;1.65;;;;;;;22.48;63.43;96572.78;4985851;28;20235;-85
2023/09/03 07:49:30;;;;;;;1.70;1.60;;;;;;;22.76;63.17;96572.69;4983870;28;20580;-85
2023/09/03 07:51:56;;;;;;;3.22;1.73;;;;;;;22.75;62.89;96573.69;4976712;28;20545;-84
2023/09/03 07:54:21;;;;;;;2.63;2.00;;;;;;;22.48;63.05;96578.06;4981492;28;20215;-85
2023/09/03 07:56:46;;;;;;;1.95;1.85;;;;;;;22.85;62.71;96584.75;4994032;28;20235;-85
2023/09/03 07:59:12;;;;;;;1.70;1.60;;;;;;;22.91;62.81;96582.34;5004890;28;20294;-84
2023/09/03 08:01:37;;;;;;;1.70;1.60;;;;;;;22.98;61.77;96580.53;5010926;28;20188;-86
2023/09/03 08:04:03;;;;;;;3.25;1.70;;;;;;;22.70;63.39;96581.41;4978096;28;20246;-85
2023/09/03 08:06:29;;;;;;;1.85;1.70;;;;;;;22.71;62.86;96580.41;4978321;28;20191;-86
2023/09/03 08:08:55;;;;;;;2.05;1.70;;;;;;;22.87;60.81;96582.72;5007084;28;20208;-85
2023/09/03 08:11:21;;;;;;;3.05;1.73;;;;;;;22.81;61.95;96595.94;4972710;28;20211;-85
2023/09/03 08:13:51;;;;;;;1.55;1.45;;;;;;;22.62;62.34;96589.53;4986451;28;20194;-85
2023/09/03 08:16:16;;;;;;;1.58;1.48;;;;;;;22.86;62.04;96596.97;4979765;28;20208;-85
2023/09/03 08:18:41;;;;;;;2.60;1.98;;;;;;;22.60;62.20;96597.66;4979210;28;20214;-85
2023/09/03 08:21:07;;;;;;;2.60;1.75;;;;;;;22.74;62.68;96593.25;4978245;28;20227;-85
2023/09/03 08:23:32;;;;;;;1.92;1.83;;;;;;;22.46;63.76;96603.13;4991567;28;20234;-79
2023/09/03 08:25:57;;;;;;;1.92;1.83;;;;;;;22.87;62.86;96603.09;5006727;28;20247;-80
2023/09/03 08:28:23;;;;;;;2.90;2.17;;;;;;;22.62;63.76;96610.72;4972792;28;20179;-78
2023/09/03 08:30:48;;;;;;;3.65;2.00;;;;;;;23.28;61.79;96605.66;4986072;28;20677;-79
2023/09/03 08:33:13;;;;;;;2.13;1.88;;;;;;;23.02;62.77;96605.59;4987245;28;20193;-80
2023/09/03 08:35:39;;;;;;;2.92;2.10;;;;;;;23.27;62.61;96611.97;4974190;28;20211;-82
2023/09/03 08:38:04;;;;;;;2.13;1.85;;;;;;;23.56;61.75;96613.41;4972157;28;20181;-79
2023/09/03 08:40:29;;;;;;;5.28;1.77;;;;;;;23.31;62.86;96617.66;4988943;28;20641;-81
2023/09/03 08:42:55;;;;;;;2.20;1.80;;;;;;;23.52;61.87;96614.84;4984968;28;20658;-78
2023/09/03 08:45:22;;;;;;;2.05;1.80;;;;;;;23.39;62.85;96613.00;4981293;28;20187;-80
2023/09/03 08:47:47;;;;;;;3.00;1.88;;;;;;;23.90;61.60;96614.28;4984632;28;20188;-78
2023/09/03 08:50:13;;;;;;;2.80;1.92;;;;;;;23.99;59.96;96613.84;4980015;28;20200;-80
2023/09/03 08:52:40;;;;;;;1.90;1.80;;;;;;;24.31;58.18;96616.69;4973400;28;20188;-81
2023/09/03 08:55:06;;;;;;;1.77;1.50;;;;;;;24.21;59.25;96617.09;4982538;28;20263;-79
2023/09/03 08:57:34;;;;;;;1.60;1.50;;;;;;;24.37;56.86;96621.16;4996562;28;20279;-80
2023/09/03 09:00:00;;;;;;;1.58;1.48;;;;;;;23.79;58.81;96610.41;4981477;28;20207;-81
2023/09/03 09:02:26;;;;;;;2.38;1.85;;;;;;;24.14;57.10;96620.78;4982973;28;20177;-79
2023/09/03 09:04:51;;;;;;;1.98;1.73;;;;;;;24.35;57.27;96622.41;4986045;28;20220;-78
2023/09/03 09:07:20;;;;;;;2.97;1.63;;;;;;;24.36;57.91;96630.16;4967007;28;20177;-79
2023/09/03 09:09:46;;;;;;;1.52;1.42;;;;;;;23.92;60.23;96631.59;4963592;28;20773;-79
2023/09/03 09:12:23;;;;;;;1.83;1.60;;;;;;;24.05;60.03;96633.44;4980577;28;20279;-79
2023/09/03 09:15:00;;;;;;;2.03;1.50;;;;;;;24.33;57.99;96641.19;4980435;28;20180;-79
2023/09/03 09:17:28;;;;;;;1.48;1.38;;;;;;;24.27;57.51;96649.94;4971704;28;20230;-79
2023/09/03 09:19:57;;;;;;;2.63;1.60;;;;;;;23.99;57.86;96647.53;4987426;28;20239;-78
2023/09/03 09:22:22;;;;;;;2.00;1.80;;;;;;;24.07;57.41;96647.31;4986476;28;20263;-79
2023/09/03 09:24:48;;;;;;;1.80;1.70;;;;;;;23.91;57.97;96645.91;4984100;28;20266;-80
2023/09/03 09:27:18;;;;;;;1.95;1.83;;;;;;;23.99;58.75;96643.03;4993983;28;20192;-80
2023/09/03 09:29:44;;;;;;;1.70;1.60;;;;;;;23.95;58.44;96647.13;4988556;28;20262;-80
2023/09/03 09:32:21;;;;;;;1.80;1.60;;;;;;;24.35;58.10;96640.97;4988943;28;20557;-81
2023/09/03 09:34:46;;;;;;;2.75;1.50;;;;;;;24.26;57.60;96646.47;4989428;28;20822;-79
2023/09/03 09:37:13;;;;;;;2.63;1.40;;;;;;;24.19;56.11;96650.97;4986262;28;20214;-79
2023/09/03 09:39:44;;;;;;;1.40;1.30;;;;;;;23.90;57.14;96649.56;4982773;28;20604;-78
2023/09/03 09:42:12;;;;;;;1.85;1.27;;;;;;;23.70;57.71;96651.41;4983977;28;20184;-79
2023/09/03 09:44:37;;;;;;;1.50;1.40;;;;;;;23.72;58.21;96654.66;4979800;28;20603;-79
2023/09/03 09:47:16;;;;;;;1.40;1.30;;;;;;;23.54;57.98;96657.88;4990549;28;20176;-81
2023/09/03 09:49:42;;;;;;;1.80;1.40;;;;;;;23.87;57.26;96657.94;4980079;28;20287;-80
2023/09/03 09:52:08;;;;;;;1.40;1.30;;;;;;;24.05;57.07;96654.69;4987902;28;20184;-79
2023/09/03 09:54:40;;;;;;;2.15;1.45;;;;;;;23.33;59.52;96656.22;4985125;28;20264;-79
2023/09/03 09:57:32;;;;;;;1.65;1.55;;;;;;;23.99;59.81;96660.78;4983942;28;20195;-79
2023/09/03 10:00:00;;;;;;;2.53;1.40;;;;;;;24.12;58.29;96666.09;4982594;28;20243;-79
2023/09/03 10:02:25;;;;;;;1.90;1.70;;;;;;;23.90;58.07;96662.84;4986277;28;20191;-79
2023/09/03 10:04:52;;;;;;;1.65;1.55;;;;;;;24.11;57.86;96668.94;4985426;28;20196;-81
2023/09/03 10:07:17;;;;;;;1.50;1.33;;;;;;;24.01;55.96;96659.56;4975105;28;20173;-80
2023/09/03 10:09:44;;;;;;;1.20;1.10;;;;;;;24.00;56.66;96660.59;4989957;28;20270;-80
2023/09/03 10:12:11;;;;;;;1.20;1.10;;;;;;;24.47;53.71;96665.84;4979034;28;20183;-80
2023/09/03 10:14:36;;;;;;;2.55;1.20;;;;;;;24.54;54.11;96662.16;4987726;28;20530;-80
2023/09/03 10:17:11;;;;;;;1.45;1.20;;;;;;;24.04;54.40;96668.97;4980015;28;20211;-78
2023/09/03 10:19:55;;;;;;;1.95;1.25;;;;;;;24.42;52.78;96661.19;4983136;28;20577;-78
2023/09/03 10:22:23;;;;;;;3.00;1.20;;;;;;;25.00;52.87;96663.03;4987907;28;20227;-78
2023/09/03 10:25:00;;;;;;;2.45;1.38;;;;;;;24.94;52.85;96656.75;4984950;28;20218;-78
2023/09/03 10:27:33;;;;;;;2.13;1.02;;;;;;;24.95;51.28;96649.59;4969724;28;20270;-80
2023/09/03 10:29:59;;;;;;;0.80;0.80;;;;;;;25.19;49.94;96640.91;4981155;28;20243;-81
2023/09/03 10:32:25;;;;;;;2.17;1.00;;;;;;;25.24;46.87;96645.59;4974285;28;20218;-78
2023/09/03 10:34:50;;;;;;;1.77;1.20;;;;;;;24.57;49.99;96653.00;4982192;28;20650;-84
2023/09/03 10:37:16;;;;;;;1.67;0.93;;;;;;;24.13;51.48;96649.16;4984972;28;20204;-79
2023/09/03 10:39:45;;;;;;;1.73;1.10;;;;;;;24.69;49.61;96651.31;4998232;28;20263;-81
2023/09/03 10:42:23;;;;;;;1.38;1.13;;;;;;;24.63;50.50;96649.47;4988535;28;20190;-78
2023/09/03 10:44:58;;;;;;;1.35;1.25;;;;;;;25.25;50.01;96640.03;4976939;28;20196;-79
2023/09/03 10:47:24;;;;;;;1.52;1.20;;;;;;;25.33;49.29;96633.66;4981888;28;20676;-78
2023/09/03 10:49:50;;;;;;;1.05;1.00;;;;;;;25.67;49.36;96638.56;4989323;28;20215;-79
2023/09/03 10:52:28;;;;;;;1.10;0.88;;;;;;;25.91;47.59;96644.97;4977265;28;20187;-80
2023/09/03 10:55:20;;;;;;;1.00;0.90;;;;;;;25.92;48.37;96645.75;4988013;28;20187;-80
2023/09/03 10:57:47;;;;;;;2.05;1.00;;;;;;;25.66;48.94;96644.91;4972470;28;20691;-83
2023/09/03 11:00:21;;;;;;;1.27;1.00;;;;;;;25.70;48.83;96645.28;4973361;28;20214;-83
2023/09/03 11:02:46;;;;;;;0.95;0.90;;;;;;;25.78;48.94;96638.91;4967641;28;20662;-81
2023/09/03 11:05:24;;;;;;;1.15;1.05;;;;;;;25.95;49.22;96635.50;4968418;28;20199;-83
2023/09/03 11:08:22;;;;;;;1.20;1.10;;;;;;;26.33;48.08;96650.53;4989145;28;20224;-82
2023/09/03 11:10:48;;;;;;;1.17;1.08;;;;;;;26.66;47.33;96647.53;4984459;28;20187;-81
2023/09/03 11:13:14;;;;;;;1.48;0.90;;;;;;;26.31;47.96;96639.25;4960575;28;20282;-82
2023/09/03 11:15:58;;;;;;;1.23;1.00;;;;;;;26.35;48.47;96639.66;4981461;28;20208;-82
2023/09/03 11:18:26;;;;;;;1.20;1.10;;;;;;;26.14;48.51;96638.19;4985557;28;20279;-82
2023/09/03 11:20:52;;;;;;;1.67;1.55;;;;;;;26.58;48.38;96634.50;4965396;28;20558;-81
2023/09/03 11:23:18;;;;;;;0.93;0.80;;;;;;;26.74;47.40;96628.56;4980890;28;20557;-82
2023/09/03 11:25:43;;;;;;;1.23;0.98;;;;;;;26.38;46.73;96628.56;4984998;28;20188;-81
2023/09/03 11:28:12;;;;;;;1.05;1.00;;;;;;;26.24;48.19;96627.88;4988984;28;20194;-82
2023/09/03 11:30:45;;;;;;;2.03;1.10;;;;;;;26.22;48.20;96625.41;4959554;28;20295;-81
2023/09/03 11:33:27;;;;;;;1.33;1.20;;;;;;;26.06;49.69;96619.84;4990042;28;20187;-85
2023/09/03 11:35:55;;;;;;;1.27;1.00;;;;;;;26.28;47.04;96623.72;4987294;28;20203;-82